Pictou, Canada
Current Conditions -  °F | °C
As of 5:20 PM on Monday 24 Nov 2014 (Local Time) from CYYG Reporting Station
Rain Showers Rain Showers  
Wind Chill: 38°   Ceiling: 1100
Heat Index: 46°   Visibility: 12mi
Dew Point: 45°   Wind: 23mph
Humidity: 93%   Direction: 140°SE
Pressure: 29.88"   Gusts: 35mph
Location:  45.67°N, 62.7°W
Report Text: CYYG 242120Z 14020G30KT 12SM -SHRA BKN011 BKN020 OVC035 08/07 A2988 RMK SC5SC1SC2 PRESFR SLP118
Loading
Personal Weather Stations






























Interactive Weather Map New forecast layout! Learn more

10-Day Weather Forecast

Advertisements
Track Severe Weather on mobile